sensor_id;sensor_type;location;lat;lon;timestamp;P1;durP1;ratioP1;P2;durP2;ratioP2
47429;SDS011;33181;49.246;7.372;2022-11-20T00:00:37;26.00;;;12.90;;
47429;SDS011;33181;49.246;7.372;2022-11-20T00:03:03;17.50;;;11.97;;
47429;SDS011;33181;49.246;7.372;2022-11-20T00:05:31;21.13;;;13.33;;
47429;SDS011;33181;49.246;7.372;2022-11-20T00:07:58;21.80;;;12.70;;
47429;SDS011;33181;49.246;7.372;2022-11-20T00:10:24;21.90;;;12.60;;
47429;SDS011;33181;49.246;7.372;2022-11-20T00:12:49;21.43;;;11.73;;
47429;SDS011;33181;49.246;7.372;2022-11-20T00:15:15;21.50;;;12.70;;
47429;SDS011;33181;49.246;7.372;2022-11-20T00:17:41;25.67;;;12.47;;
47429;SDS011;33181;49.246;7.372;2022-11-20T00:20:07;20.13;;;12.33;;
47429;SDS011;33181;49.246;7.372;2022-11-20T00:22:33;19.70;;;12.60;;
47429;SDS011;33181;49.246;7.372;2022-11-20T00:24:59;24.40;;;13.50;;
47429;SDS011;33181;49.246;7.372;2022-11-20T00:27:25;19.07;;;12.90;;
47429;SDS011;33181;49.246;7.372;2022-11-20T00:29:50;20.30;;;12.60;;
47429;SDS011;33181;49.246;7.372;2022-11-20T00:32:16;24.00;;;13.10;;
47429;SDS011;33181;49.246;7.372;2022-11-20T00:34:42;19.90;;;12.70;;
47429;SDS011;33181;49.246;7.372;2022-11-20T00:37:08;20.50;;;12.90;;
47429;SDS011;33181;49.246;7.372;2022-11-20T00:39:33;20.20;;;12.67;;
47429;SDS011;33181;49.246;7.372;2022-11-20T00:41:59;19.83;;;11.87;;
47429;SDS011;33181;49.246;7.372;2022-11-20T00:44:25;19.40;;;12.33;;
47429;SDS011;33181;49.246;7.372;2022-11-20T00:46:51;17.70;;;12.10;;
47429;SDS011;33181;49.246;7.372;2022-11-20T00:49:16;20.70;;;12.27;;
47429;SDS011;33181;49.246;7.372;2022-11-20T00:51:42;19.20;;;12.10;;
47429;SDS011;33181;49.246;7.372;2022-11-20T00:54:08;21.03;;;12.70;;
47429;SDS011;33181;49.246;7.372;2022-11-20T00:56:33;20.13;;;12.87;;
47429;SDS011;33181;49.246;7.372;2022-11-20T00:59:00;23.93;;;12.20;;
47429;SDS011;33181;49.246;7.372;2022-11-20T01:01:26;17.93;;;11.90;;
47429;SDS011;33181;49.246;7.372;2022-11-20T01:03:54;22.07;;;13.10;;
47429;SDS011;33181;49.246;7.372;2022-11-20T01:06:24;18.73;;;12.00;;
47429;SDS011;33181;49.246;7.372;2022-11-20T01:08:52;18.83;;;12.53;;
47429;SDS011;33181;49.246;7.372;2022-11-20T01:11:22;22.40;;;13.67;;
47429;SDS011;33181;49.246;7.372;2022-11-20T01:13:54;20.70;;;14.17;;
47429;SDS011;33181;49.246;7.372;2022-11-20T01:16:26;21.33;;;12.30;;
47429;SDS011;33181;49.246;7.372;2022-11-20T01:19:02;19.87;;;12.50;;
47429;SDS011;33181;49.246;7.372;2022-11-20T01:21:31;19.17;;;12.30;;
47429;SDS011;33181;49.246;7.372;2022-11-20T01:24:00;18.30;;;11.30;;
47429;SDS011;33181;49.246;7.372;2022-11-20T01:26:28;19.93;;;12.90;;
47429;SDS011;33181;49.246;7.372;2022-11-20T01:28:57;20.60;;;12.53;;
47429;SDS011;33181;49.246;7.372;2022-11-20T01:31:31;20.80;;;12.13;;
47429;SDS011;33181;49.246;7.372;2022-11-20T01:34:04;21.03;;;12.63;;
47429;SDS011;33181;49.246;7.372;2022-11-20T01:36:42;16.87;;;11.43;;
47429;SDS011;33181;49.246;7.372;2022-11-20T01:39:13;19.60;;;12.40;;
47429;SDS011;33181;49.246;7.372;2022-11-20T01:41:47;20.10;;;11.73;;
47429;SDS011;33181;49.246;7.372;2022-11-20T01:47:36;18.57;;;11.77;;
47429;SDS011;33181;49.246;7.372;2022-11-20T01:50:17;18.40;;;11.20;;
47429;SDS011;33181;49.246;7.372;2022-11-20T01:53:07;18.13;;;11.57;;
47429;SDS011;33181;49.246;7.372;2022-11-20T01:55:39;19.97;;;11.80;;
47429;SDS011;33181;49.246;7.372;2022-11-20T01:58:10;17.10;;;10.97;;
47429;SDS011;33181;49.246;7.372;2022-11-20T02:00:36;15.77;;;10.67;;
47429;SDS011;33181;49.246;7.372;2022-11-20T02:03:03;15.17;;;10.10;;
47429;SDS011;33181;49.246;7.372;2022-11-20T02:08:32;17.33;;;10.83;;
47429;SDS011;33181;49.246;7.372;2022-11-20T02:10:58;15.73;;;10.33;;
47429;SDS011;33181;49.246;7.372;2022-11-20T02:13:24;16.23;;;9.50;;
47429;SDS011;33181;49.246;7.372;2022-11-20T02:16:10;11.97;;;8.63;;
47429;SDS011;33181;49.246;7.372;2022-11-20T02:18:40;13.10;;;8.73;;
47429;SDS011;33181;49.246;7.372;2022-11-20T02:26:30;13.70;;;8.63;;
47429;SDS011;33181;49.246;7.372;2022-11-20T02:29:24;15.07;;;9.80;;
47429;SDS011;33181;49.246;7.372;2022-11-20T02:32:04;13.50;;;9.10;;
47429;SDS011;33181;49.246;7.372;2022-11-20T02:34:30;13.83;;;9.50;;
47429;SDS011;33181;49.246;7.372;2022-11-20T02:36:56;14.50;;;8.63;;
47429;SDS011;33181;49.246;7.372;2022-11-20T02:39:24;19.37;;;9.60;;
47429;SDS011;33181;49.246;7.372;2022-11-20T02:41:54;12.73;;;9.00;;
47429;SDS011;33181;49.246;7.372;2022-11-20T02:44:21;14.07;;;8.90;;
47429;SDS011;33181;49.246;7.372;2022-11-20T02:46:47;13.33;;;9.20;;
47429;SDS011;33181;49.246;7.372;2022-11-20T02:49:13;10.83;;;7.43;;
47429;SDS011;33181;49.246;7.372;2022-11-20T02:51:38;13.63;;;8.03;;
47429;SDS011;33181;49.246;7.372;2022-11-20T02:54:04;11.57;;;8.60;;
47429;SDS011;33181;49.246;7.372;2022-11-20T02:56:30;13.30;;;7.70;;
47429;SDS011;33181;49.246;7.372;2022-11-20T02:58:56;15.23;;;9.10;;
47429;SDS011;33181;49.246;7.372;2022-11-20T03:01:21;12.47;;;8.07;;
47429;SDS011;33181;49.246;7.372;2022-11-20T03:03:47;12.90;;;8.50;;
47429;SDS011;33181;49.246;7.372;2022-11-20T03:06:13;11.00;;;8.17;;
47429;SDS011;33181;49.246;7.372;2022-11-20T03:08:41;14.70;;;7.70;;
47429;SDS011;33181;49.246;7.372;2022-11-20T03:11:07;13.37;;;8.57;;
47429;SDS011;33181;49.246;7.372;2022-11-20T03:13:34;10.90;;;7.33;;
47429;SDS011;33181;49.246;7.372;2022-11-20T03:16:10;11.63;;;7.53;;
47429;SDS011;33181;49.246;7.372;2022-11-20T03:18:40;10.40;;;7.83;;
47429;SDS011;33181;49.246;7.372;2022-11-20T03:21:07;12.30;;;7.73;;
47429;SDS011;33181;49.246;7.372;2022-11-20T03:23:34;11.13;;;7.90;;
47429;SDS011;33181;49.246;7.372;2022-11-20T03:28:51;12.33;;;7.50;;
47429;SDS011;33181;49.246;7.372;2022-11-20T03:31:25;11.20;;;8.03;;
47429;SDS011;33181;49.246;7.372;2022-11-20T03:33:55;10.50;;;7.60;;
47429;SDS011;33181;49.246;7.372;2022-11-20T03:36:22;12.90;;;7.63;;
47429;SDS011;33181;49.246;7.372;2022-11-20T03:38:48;10.40;;;7.00;;
47429;SDS011;33181;49.246;7.372;2022-11-20T03:41:15;9.57;;;7.00;;
47429;SDS011;33181;49.246;7.372;2022-11-20T03:43:47;10.40;;;7.40;;
47429;SDS011;33181;49.246;7.372;2022-11-20T03:46:14;10.33;;;7.17;;
47429;SDS011;33181;49.246;7.372;2022-11-20T03:48:40;11.27;;;6.70;;
47429;SDS011;33181;49.246;7.372;2022-11-20T03:51:10;10.40;;;7.10;;
47429;SDS011;33181;49.246;7.372;2022-11-20T03:53:41;9.03;;;6.60;;
47429;SDS011;33181;49.246;7.372;2022-11-20T03:56:09;10.60;;;7.00;;
47429;SDS011;33181;49.246;7.372;2022-11-20T03:58:37;10.93;;;7.17;;
47429;SDS011;33181;49.246;7.372;2022-11-20T04:01:26;8.93;;;6.50;;
47429;SDS011;33181;49.246;7.372;2022-11-20T04:03:53;9.90;;;6.90;;
47429;SDS011;33181;49.246;7.372;2022-11-20T04:06:21;11.20;;;6.33;;
47429;SDS011;33181;49.246;7.372;2022-11-20T04:08:54;9.00;;;6.50;;
47429;SDS011;33181;49.246;7.372;2022-11-20T04:11:22;8.73;;;6.43;;
47429;SDS011;33181;49.246;7.372;2022-11-20T04:13:54;8.83;;;6.37;;
47429;SDS011;33181;49.246;7.372;2022-11-20T04:16:28;10.10;;;6.50;;
47429;SDS011;33181;49.246;7.372;2022-11-20T04:18:57;9.97;;;6.43;;
47429;SDS011;33181;49.246;7.372;2022-11-20T04:21:24;10.07;;;6.63;;
47429;SDS011;33181;49.246;7.372;2022-11-20T04:23:52;9.20;;;6.33;;
47429;SDS011;33181;49.246;7.372;2022-11-20T04:26:18;9.33;;;6.43;;
47429;SDS011;33181;49.246;7.372;2022-11-20T04:28:46;9.63;;;6.33;;
47429;SDS011;33181;49.246;7.372;2022-11-20T04:31:12;8.90;;;6.70;;
47429;SDS011;33181;49.246;7.372;2022-11-20T04:33:41;7.90;;;6.40;;
47429;SDS011;33181;49.246;7.372;2022-11-20T04:36:09;9.40;;;6.87;;
47429;SDS011;33181;49.246;7.372;2022-11-20T04:38:40;10.17;;;7.23;;
47429;SDS011;33181;49.246;7.372;2022-11-20T04:41:06;13.27;;;7.20;;
47429;SDS011;33181;49.246;7.372;2022-11-20T04:43:35;9.60;;;7.17;;
47429;SDS011;33181;49.246;7.372;2022-11-20T04:46:01;10.10;;;7.50;;
47429;SDS011;33181;49.246;7.372;2022-11-20T04:48:27;10.77;;;7.20;;
47429;SDS011;33181;49.246;7.372;2022-11-20T04:50:54;16.67;;;8.30;;
47429;SDS011;33181;49.246;7.372;2022-11-20T04:53:20;11.50;;;8.93;;
47429;SDS011;33181;49.246;7.372;2022-11-20T04:55:47;11.63;;;7.60;;
47429;SDS011;33181;49.246;7.372;2022-11-20T04:58:13;10.20;;;7.40;;
47429;SDS011;33181;49.246;7.372;2022-11-20T05:00:39;10.67;;;7.50;;
47429;SDS011;33181;49.246;7.372;2022-11-20T05:03:05;10.10;;;7.20;;
47429;SDS011;33181;49.246;7.372;2022-11-20T05:05:33;10.00;;;7.40;;
47429;SDS011;33181;49.246;7.372;2022-11-20T05:07:59;10.70;;;6.60;;
47429;SDS011;33181;49.246;7.372;2022-11-20T05:10:25;11.30;;;7.03;;
47429;SDS011;33181;49.246;7.372;2022-11-20T05:12:52;11.57;;;7.07;;
47429;SDS011;33181;49.246;7.372;2022-11-20T05:15:18;9.90;;;7.70;;
47429;SDS011;33181;49.246;7.372;2022-11-20T05:17:48;9.23;;;7.17;;
47429;SDS011;33181;49.246;7.372;2022-11-20T05:20:17;12.47;;;7.23;;
47429;SDS011;33181;49.246;7.372;2022-11-20T05:22:43;9.30;;;6.50;;
47429;SDS011;33181;49.246;7.372;2022-11-20T05:25:09;11.33;;;7.60;;
47429;SDS011;33181;49.246;7.372;2022-11-20T05:27:36;10.30;;;7.80;;
47429;SDS011;33181;49.246;7.372;2022-11-20T05:30:03;11.40;;;7.90;;
47429;SDS011;33181;49.246;7.372;2022-11-20T05:32:30;10.30;;;8.03;;
47429;SDS011;33181;49.246;7.372;2022-11-20T05:34:56;12.83;;;8.10;;
47429;SDS011;33181;49.246;7.372;2022-11-20T05:37:22;12.90;;;8.63;;
47429;SDS011;33181;49.246;7.372;2022-11-20T05:39:47;12.30;;;8.50;;
47429;SDS011;33181;49.246;7.372;2022-11-20T05:42:13;13.93;;;9.10;;
47429;SDS011;33181;49.246;7.372;2022-11-20T05:44:57;13.50;;;8.90;;
47429;SDS011;33181;49.246;7.372;2022-11-20T05:47:31;11.90;;;8.70;;
47429;SDS011;33181;49.246;7.372;2022-11-20T05:49:59;11.67;;;8.90;;
47429;SDS011;33181;49.246;7.372;2022-11-20T05:52:28;18.70;;;9.23;;
47429;SDS011;33181;49.246;7.372;2022-11-20T05:54:54;13.47;;;9.40;;
47429;SDS011;33181;49.246;7.372;2022-11-20T05:57:20;13.13;;;9.10;;
47429;SDS011;33181;49.246;7.372;2022-11-20T05:59:46;12.80;;;8.90;;
47429;SDS011;33181;49.246;7.372;2022-11-20T06:02:11;15.03;;;9.23;;
47429;SDS011;33181;49.246;7.372;2022-11-20T06:04:37;12.80;;;8.70;;
47429;SDS011;33181;49.246;7.372;2022-11-20T06:07:04;14.93;;;9.00;;
47429;SDS011;33181;49.246;7.372;2022-11-20T06:09:30;18.90;;;9.83;;
47429;SDS011;33181;49.246;7.372;2022-11-20T06:11:56;14.80;;;9.50;;
47429;SDS011;33181;49.246;7.372;2022-11-20T06:14:22;13.17;;;8.77;;
47429;SDS011;33181;49.246;7.372;2022-11-20T06:16:47;15.03;;;8.83;;
47429;SDS011;33181;49.246;7.372;2022-11-20T06:19:13;15.17;;;9.07;;
47429;SDS011;33181;49.246;7.372;2022-11-20T06:21:40;17.00;;;9.47;;
47429;SDS011;33181;49.246;7.372;2022-11-20T06:24:06;12.50;;;8.70;;
47429;SDS011;33181;49.246;7.372;2022-11-20T06:26:34;13.33;;;8.73;;
47429;SDS011;33181;49.246;7.372;2022-11-20T06:28:59;13.27;;;9.20;;
47429;SDS011;33181;49.246;7.372;2022-11-20T06:31:25;13.03;;;9.33;;
47429;SDS011;33181;49.246;7.372;2022-11-20T06:33:53;15.37;;;9.87;;
47429;SDS011;33181;49.246;7.372;2022-11-20T06:36:19;14.37;;;9.80;;
47429;SDS011;33181;49.246;7.372;2022-11-20T06:38:47;15.53;;;9.67;;
47429;SDS011;33181;49.246;7.372;2022-11-20T06:41:14;16.80;;;9.50;;
47429;SDS011;33181;49.246;7.372;2022-11-20T06:43:43;14.20;;;9.83;;
47429;SDS011;33181;49.246;7.372;2022-11-20T06:46:09;16.07;;;10.70;;
47429;SDS011;33181;49.246;7.372;2022-11-20T06:48:37;15.70;;;10.40;;
47429;SDS011;33181;49.246;7.372;2022-11-20T06:51:04;14.87;;;10.83;;
47429;SDS011;33181;49.246;7.372;2022-11-20T06:53:31;14.20;;;9.90;;
47429;SDS011;33181;49.246;7.372;2022-11-20T06:55:58;17.20;;;9.83;;
47429;SDS011;33181;49.246;7.372;2022-11-20T06:58:26;17.53;;;11.10;;
47429;SDS011;33181;49.246;7.372;2022-11-20T07:00:53;16.07;;;10.10;;
47429;SDS011;33181;49.246;7.372;2022-11-20T07:03:23;16.30;;;9.87;;
47429;SDS011;33181;49.246;7.372;2022-11-20T07:05:48;15.97;;;10.93;;
47429;SDS011;33181;49.246;7.372;2022-11-20T07:08:14;15.53;;;10.90;;
47429;SDS011;33181;49.246;7.372;2022-11-20T07:10:40;16.07;;;10.40;;
47429;SDS011;33181;49.246;7.372;2022-11-20T07:13:06;15.23;;;10.80;;
47429;SDS011;33181;49.246;7.372;2022-11-20T07:15:32;16.43;;;10.53;;
47429;SDS011;33181;49.246;7.372;2022-11-20T07:18:00;14.93;;;10.90;;
47429;SDS011;33181;49.246;7.372;2022-11-20T07:20:27;14.43;;;10.27;;
47429;SDS011;33181;49.246;7.372;2022-11-20T07:22:56;15.10;;;10.37;;
47429;SDS011;33181;49.246;7.372;2022-11-20T07:25:23;15.00;;;10.20;;
47429;SDS011;33181;49.246;7.372;2022-11-20T07:27:51;15.20;;;10.70;;
47429;SDS011;33181;49.246;7.372;2022-11-20T07:30:17;16.33;;;10.37;;
47429;SDS011;33181;49.246;7.372;2022-11-20T07:32:46;16.97;;;11.20;;
47429;SDS011;33181;49.246;7.372;2022-11-20T07:35:15;18.20;;;10.57;;
47429;SDS011;33181;49.246;7.372;2022-11-20T07:37:41;16.03;;;11.70;;
47429;SDS011;33181;49.246;7.372;2022-11-20T07:40:07;15.10;;;11.03;;
47429;SDS011;33181;49.246;7.372;2022-11-20T07:42:33;16.80;;;11.33;;
47429;SDS011;33181;49.246;7.372;2022-11-20T07:44:58;16.30;;;10.20;;
47429;SDS011;33181;49.246;7.372;2022-11-20T07:47:24;15.20;;;10.40;;
47429;SDS011;33181;49.246;7.372;2022-11-20T07:49:50;12.33;;;9.20;;
47429;SDS011;33181;49.246;7.372;2022-11-20T07:52:16;13.00;;;8.70;;
47429;SDS011;33181;49.246;7.372;2022-11-20T07:54:41;14.80;;;9.40;;
47429;SDS011;33181;49.246;7.372;2022-11-20T07:57:07;11.00;;;7.80;;
47429;SDS011;33181;49.246;7.372;2022-11-20T07:59:33;13.40;;;8.03;;
47429;SDS011;33181;49.246;7.372;2022-11-20T08:01:58;10.73;;;8.03;;
47429;SDS011;33181;49.246;7.372;2022-11-20T08:04:24;11.73;;;8.20;;
47429;SDS011;33181;49.246;7.372;2022-11-20T08:06:51;10.30;;;7.93;;
47429;SDS011;33181;49.246;7.372;2022-11-20T08:09:17;10.27;;;7.73;;
47429;SDS011;33181;49.246;7.372;2022-11-20T08:11:43;15.60;;;7.97;;
47429;SDS011;33181;49.246;7.372;2022-11-20T08:14:27;12.37;;;8.27;;
47429;SDS011;33181;49.246;7.372;2022-11-20T08:16:53;10.60;;;7.73;;
47429;SDS011;33181;49.246;7.372;2022-11-20T08:19:18;9.53;;;7.30;;
47429;SDS011;33181;49.246;7.372;2022-11-20T08:21:45;11.10;;;7.90;;
47429;SDS011;33181;49.246;7.372;2022-11-20T08:24:11;10.03;;;7.77;;
47429;SDS011;33181;49.246;7.372;2022-11-20T08:26:37;10.90;;;7.60;;
47429;SDS011;33181;49.246;7.372;2022-11-20T08:29:04;11.03;;;7.20;;
47429;SDS011;33181;49.246;7.372;2022-11-20T08:31:30;10.60;;;8.30;;
47429;SDS011;33181;49.246;7.372;2022-11-20T08:33:56;11.50;;;7.63;;
47429;SDS011;33181;49.246;7.372;2022-11-20T08:36:23;9.90;;;8.40;;
47429;SDS011;33181;49.246;7.372;2022-11-20T08:38:50;13.50;;;8.73;;
47429;SDS011;33181;49.246;7.372;2022-11-20T08:41:19;10.60;;;8.00;;
47429;SDS011;33181;49.246;7.372;2022-11-20T08:43:48;18.83;;;7.50;;
47429;SDS011;33181;49.246;7.372;2022-11-20T08:46:30;11.13;;;7.80;;
47429;SDS011;33181;49.246;7.372;2022-11-20T08:48:58;11.23;;;7.80;;
47429;SDS011;33181;49.246;7.372;2022-11-20T08:51:24;9.87;;;7.60;;
47429;SDS011;33181;49.246;7.372;2022-11-20T08:53:50;9.17;;;7.60;;
47429;SDS011;33181;49.246;7.372;2022-11-20T08:56:16;10.30;;;7.90;;
47429;SDS011;33181;49.246;7.372;2022-11-20T08:58:42;12.70;;;8.27;;
47429;SDS011;33181;49.246;7.372;2022-11-20T09:01:08;11.30;;;7.83;;
47429;SDS011;33181;49.246;7.372;2022-11-20T09:03:35;10.27;;;7.70;;
47429;SDS011;33181;49.246;7.372;2022-11-20T09:06:02;11.60;;;7.60;;
47429;SDS011;33181;49.246;7.372;2022-11-20T09:08:31;9.97;;;7.10;;
47429;SDS011;33181;49.246;7.372;2022-11-20T09:10:58;10.10;;;7.40;;
47429;SDS011;33181;49.246;7.372;2022-11-20T09:13:25;12.00;;;7.00;;
47429;SDS011;33181;49.246;7.372;2022-11-20T09:15:53;11.50;;;7.37;;
47429;SDS011;33181;49.246;7.372;2022-11-20T09:18:20;10.97;;;7.63;;
47429;SDS011;33181;49.246;7.372;2022-11-20T09:20:46;11.30;;;7.90;;
47429;SDS011;33181;49.246;7.372;2022-11-20T09:23:12;11.93;;;7.80;;
47429;SDS011;33181;49.246;7.372;2022-11-20T09:25:37;10.47;;;7.83;;
47429;SDS011;33181;49.246;7.372;2022-11-20T09:28:03;10.70;;;7.70;;
47429;SDS011;33181;49.246;7.372;2022-11-20T09:30:30;9.27;;;6.60;;
47429;SDS011;33181;49.246;7.372;2022-11-20T09:32:55;10.83;;;6.70;;
47429;SDS011;33181;49.246;7.372;2022-11-20T09:35:21;9.87;;;6.47;;
47429;SDS011;33181;49.246;7.372;2022-11-20T09:37:47;11.77;;;6.63;;
47429;SDS011;33181;49.246;7.372;2022-11-20T09:40:20;10.23;;;6.60;;
47429;SDS011;33181;49.246;7.372;2022-11-20T09:43:00;9.37;;;6.07;;
47429;SDS011;33181;49.246;7.372;2022-11-20T09:46:02;11.93;;;6.10;;
47429;SDS011;33181;49.246;7.372;2022-11-20T09:54:16;7.90;;;6.10;;
47429;SDS011;33181;49.246;7.372;2022-11-20T09:56:49;10.43;;;6.30;;
47429;SDS011;33181;49.246;7.372;2022-11-20T09:59:40;10.47;;;6.30;;
47429;SDS011;33181;49.246;7.372;2022-11-20T10:02:28;9.00;;;5.80;;
47429;SDS011;33181;49.246;7.372;2022-11-20T10:05:10;8.53;;;5.73;;
47429;SDS011;33181;49.246;7.372;2022-11-20T10:17:03;8.63;;;5.50;;
47429;SDS011;33181;49.246;7.372;2022-11-20T10:25:27;8.30;;;5.53;;
47429;SDS011;33181;49.246;7.372;2022-11-20T10:28:22;9.40;;;6.30;;
47429;SDS011;33181;49.246;7.372;2022-11-20T10:31:25;6.60;;;5.10;;
47429;SDS011;33181;49.246;7.372;2022-11-20T10:33:58;8.60;;;5.70;;
47429;SDS011;33181;49.246;7.372;2022-11-20T10:36:33;15.20;;;5.60;;
47429;SDS011;33181;49.246;7.372;2022-11-20T10:39:25;11.90;;;5.80;;
47429;SDS011;33181;49.246;7.372;2022-11-20T10:42:59;10.13;;;5.70;;
47429;SDS011;33181;49.246;7.372;2022-11-20T10:47:56;8.87;;;5.50;;
47429;SDS011;33181;49.246;7.372;2022-11-20T10:56:35;11.77;;;5.47;;
47429;SDS011;33181;49.246;7.372;2022-11-20T11:02:18;11.30;;;5.90;;
47429;SDS011;33181;49.246;7.372;2022-11-20T11:04:49;8.83;;;5.20;;
47429;SDS011;33181;49.246;7.372;2022-11-20T11:07:25;11.50;;;5.47;;
47429;SDS011;33181;49.246;7.372;2022-11-20T11:09:59;11.80;;;6.37;;
47429;SDS011;33181;49.246;7.372;2022-11-20T11:12:26;10.67;;;6.00;;
47429;SDS011;33181;49.246;7.372;2022-11-20T11:14:55;12.23;;;5.70;;
47429;SDS011;33181;49.246;7.372;2022-11-20T11:17:23;10.47;;;6.03;;
47429;SDS011;33181;49.246;7.372;2022-11-20T11:19:58;11.60;;;5.60;;
47429;SDS011;33181;49.246;7.372;2022-11-20T11:22:32;13.83;;;5.10;;
47429;SDS011;33181;49.246;7.372;2022-11-20T11:25:11;17.23;;;4.70;;
47429;SDS011;33181;49.246;7.372;2022-11-20T11:27:56;13.23;;;4.73;;
47429;SDS011;33181;49.246;7.372;2022-11-20T11:30:26;7.73;;;4.80;;
47429;SDS011;33181;49.246;7.372;2022-11-20T11:33:05;7.13;;;4.00;;
47429;SDS011;33181;49.246;7.372;2022-11-20T11:35:39;9.53;;;4.00;;
47429;SDS011;33181;49.246;7.372;2022-11-20T11:38:34;6.53;;;4.00;;
47429;SDS011;33181;49.246;7.372;2022-11-20T11:41:04;5.30;;;3.93;;
47429;SDS011;33181;49.246;7.372;2022-11-20T11:43:34;9.80;;;4.10;;
47429;SDS011;33181;49.246;7.372;2022-11-20T11:51:39;8.30;;;3.50;;
47429;SDS011;33181;49.246;7.372;2022-11-20T11:54:54;6.40;;;3.37;;
47429;SDS011;33181;49.246;7.372;2022-11-20T11:57:41;8.50;;;2.93;;
47429;SDS011;33181;49.246;7.372;2022-11-20T12:00:15;6.83;;;3.03;;
47429;SDS011;33181;49.246;7.372;2022-11-20T12:10:44;6.20;;;2.83;;
47429;SDS011;33181;49.246;7.372;2022-11-20T12:16:02;6.60;;;3.00;;
47429;SDS011;33181;49.246;7.372;2022-11-20T12:18:29;3.67;;;2.60;;
47429;SDS011;33181;49.246;7.372;2022-11-20T12:23:28;5.10;;;2.60;;
47429;SDS011;33181;49.246;7.372;2022-11-20T12:37:59;6.00;;;2.70;;
47429;SDS011;33181;49.246;7.372;2022-11-20T12:51:16;5.70;;;2.50;;
47429;SDS011;33181;49.246;7.372;2022-11-20T13:02:19;3.60;;;2.50;;
47429;SDS011;33181;49.246;7.372;2022-11-20T13:05:05;4.83;;;2.30;;
47429;SDS011;33181;49.246;7.372;2022-11-20T13:08:14;5.37;;;2.33;;
47429;SDS011;33181;49.246;7.372;2022-11-20T13:11:02;3.30;;;2.10;;
47429;SDS011;33181;49.246;7.372;2022-11-20T13:19:29;4.87;;;2.30;;
47429;SDS011;33181;49.246;7.372;2022-11-20T13:21:55;3.10;;;2.00;;
47429;SDS011;33181;49.246;7.372;2022-11-20T13:24:23;4.33;;;2.10;;
47429;SDS011;33181;49.246;7.372;2022-11-20T13:29:27;6.37;;;2.27;;
47429;SDS011;33181;49.246;7.372;2022-11-20T13:32:02;3.90;;;2.40;;
47429;SDS011;33181;49.246;7.372;2022-11-20T13:34:37;3.03;;;2.17;;
47429;SDS011;33181;49.246;7.372;2022-11-20T13:37:03;4.00;;;2.30;;
47429;SDS011;33181;49.246;7.372;2022-11-20T13:41:59;6.27;;;2.30;;
47429;SDS011;33181;49.246;7.372;2022-11-20T13:44:38;3.20;;;2.30;;
47429;SDS011;33181;49.246;7.372;2022-11-20T13:47:25;6.63;;;3.50;;
47429;SDS011;33181;49.246;7.372;2022-11-20T13:49:53;8.13;;;2.30;;
47429;SDS011;33181;49.246;7.372;2022-11-20T13:55:38;6.53;;;2.57;;
47429;SDS011;33181;49.246;7.372;2022-11-20T14:00:57;4.43;;;2.33;;
47429;SDS011;33181;49.246;7.372;2022-11-20T14:03:33;5.27;;;2.40;;
47429;SDS011;33181;49.246;7.372;2022-11-20T14:06:04;4.60;;;2.10;;
47429;SDS011;33181;49.246;7.372;2022-11-20T14:08:56;3.80;;;2.20;;
47429;SDS011;33181;49.246;7.372;2022-11-20T14:11:27;4.20;;;2.20;;
47429;SDS011;33181;49.246;7.372;2022-11-20T14:13:56;3.77;;;2.10;;
47429;SDS011;33181;49.246;7.372;2022-11-20T14:16:44;5.00;;;2.20;;
47429;SDS011;33181;49.246;7.372;2022-11-20T14:22:05;8.10;;;2.20;;
47429;SDS011;33181;49.246;7.372;2022-11-20T14:24:34;6.53;;;2.30;;
47429;SDS011;33181;49.246;7.372;2022-11-20T14:27:00;5.67;;;2.47;;
47429;SDS011;33181;49.246;7.372;2022-11-20T14:29:27;5.83;;;3.73;;
47429;SDS011;33181;49.246;7.372;2022-11-20T14:32:00;4.90;;;2.40;;
47429;SDS011;33181;49.246;7.372;2022-11-20T14:34:28;4.60;;;2.60;;
47429;SDS011;33181;49.246;7.372;2022-11-20T14:37:01;4.77;;;2.50;;
47429;SDS011;33181;49.246;7.372;2022-11-20T14:39:34;2.90;;;2.23;;
47429;SDS011;33181;49.246;7.372;2022-11-20T14:42:03;5.60;;;2.60;;
47429;SDS011;33181;49.246;7.372;2022-11-20T14:44:41;5.43;;;2.90;;
47429;SDS011;33181;49.246;7.372;2022-11-20T14:47:08;4.60;;;2.87;;
47429;SDS011;33181;49.246;7.372;2022-11-20T14:49:37;6.60;;;3.00;;
47429;SDS011;33181;49.246;7.372;2022-11-20T14:52:14;6.73;;;2.70;;
47429;SDS011;33181;49.246;7.372;2022-11-20T14:54:47;4.60;;;3.07;;
47429;SDS011;33181;49.246;7.372;2022-11-20T14:57:28;6.63;;;2.93;;
47429;SDS011;33181;49.246;7.372;2022-11-20T15:00:07;6.20;;;3.23;;
47429;SDS011;33181;49.246;7.372;2022-11-20T15:02:43;6.50;;;3.07;;
47429;SDS011;33181;49.246;7.372;2022-11-20T15:05:11;9.77;;;3.10;;
47429;SDS011;33181;49.246;7.372;2022-11-20T15:07:40;5.60;;;3.30;;
47429;SDS011;33181;49.246;7.372;2022-11-20T15:10:12;5.80;;;4.10;;
47429;SDS011;33181;49.246;7.372;2022-11-20T15:12:53;9.90;;;5.30;;
47429;SDS011;33181;49.246;7.372;2022-11-20T15:15:35;7.83;;;4.63;;
47429;SDS011;33181;49.246;7.372;2022-11-20T15:18:21;5.00;;;3.30;;
47429;SDS011;33181;49.246;7.372;2022-11-20T15:20:50;13.93;;;3.40;;
47429;SDS011;33181;49.246;7.372;2022-11-20T15:23:17;7.93;;;3.80;;
47429;SDS011;33181;49.246;7.372;2022-11-20T15:25:44;7.03;;;3.63;;
47429;SDS011;33181;49.246;7.372;2022-11-20T15:28:21;8.87;;;3.47;;
47429;SDS011;33181;49.246;7.372;2022-11-20T15:30:56;4.63;;;2.83;;
47429;SDS011;33181;49.246;7.372;2022-11-20T15:33:23;4.07;;;3.67;;
47429;SDS011;33181;49.246;7.372;2022-11-20T15:35:49;6.27;;;3.50;;
47429;SDS011;33181;49.246;7.372;2022-11-20T15:38:15;9.10;;;4.10;;
47429;SDS011;33181;49.246;7.372;2022-11-20T15:40:40;7.83;;;4.10;;
47429;SDS011;33181;49.246;7.372;2022-11-20T15:43:06;13.23;;;7.10;;
47429;SDS011;33181;49.246;7.372;2022-11-20T15:45:37;12.93;;;5.67;;
47429;SDS011;33181;49.246;7.372;2022-11-20T15:48:11;7.70;;;4.20;;
47429;SDS011;33181;49.246;7.372;2022-11-20T15:53:46;8.73;;;4.63;;
47429;SDS011;33181;49.246;7.372;2022-11-20T15:56:12;9.83;;;6.37;;
47429;SDS011;33181;49.246;7.372;2022-11-20T15:58:38;11.70;;;4.53;;
47429;SDS011;33181;49.246;7.372;2022-11-20T16:01:05;8.00;;;4.53;;
47429;SDS011;33181;49.246;7.372;2022-11-20T16:03:39;4.30;;;3.43;;
47429;SDS011;33181;49.246;7.372;2022-11-20T16:06:05;4.37;;;3.23;;
47429;SDS011;33181;49.246;7.372;2022-11-20T16:08:31;7.63;;;3.80;;
47429;SDS011;33181;49.246;7.372;2022-11-20T16:10:56;5.87;;;3.83;;
47429;SDS011;33181;49.246;7.372;2022-11-20T16:13:22;8.37;;;4.27;;
47429;SDS011;33181;49.246;7.372;2022-11-20T16:16:07;7.57;;;4.33;;
47429;SDS011;33181;49.246;7.372;2022-11-20T16:18:53;4.90;;;3.73;;
47429;SDS011;33181;49.246;7.372;2022-11-20T16:21:19;8.10;;;4.60;;
47429;SDS011;33181;49.246;7.372;2022-11-20T16:23:45;5.80;;;3.80;;
47429;SDS011;33181;49.246;7.372;2022-11-20T16:26:12;8.10;;;4.50;;
47429;SDS011;33181;49.246;7.372;2022-11-20T16:28:40;6.80;;;4.20;;
47429;SDS011;33181;49.246;7.372;2022-11-20T16:31:13;6.00;;;4.03;;
47429;SDS011;33181;49.246;7.372;2022-11-20T16:33:42;5.80;;;3.90;;
47429;SDS011;33181;49.246;7.372;2022-11-20T16:36:14;4.97;;;3.37;;
47429;SDS011;33181;49.246;7.372;2022-11-20T16:38:40;7.73;;;3.73;;
47429;SDS011;33181;49.246;7.372;2022-11-20T16:41:06;4.70;;;3.10;;
47429;SDS011;33181;49.246;7.372;2022-11-20T16:43:46;3.83;;;3.17;;
47429;SDS011;33181;49.246;7.372;2022-11-20T16:46:18;6.20;;;4.07;;
47429;SDS011;33181;49.246;7.372;2022-11-20T16:48:56;6.00;;;3.97;;
47429;SDS011;33181;49.246;7.372;2022-11-20T16:51:28;8.57;;;4.63;;
47429;SDS011;33181;49.246;7.372;2022-11-20T16:53:56;4.97;;;3.73;;